sensor_id;sensor_type;location;lat;lon;timestamp;P1;durP1;ratioP1;P2;durP2;ratioP2
59054;SDS011;44845;51.444;7.460;2022-07-29T00:02:00;5.05;;;1.00;;
59054;SDS011;44845;51.444;7.460;2022-07-29T00:04:25;6.00;;;1.75;;
59054;SDS011;44845;51.444;7.460;2022-07-29T00:06:50;4.70;;;1.10;;
59054;SDS011;44845;51.444;7.460;2022-07-29T00:09:15;4.07;;;0.83;;
59054;SDS011;44845;51.444;7.460;2022-07-29T00:11:40;6.10;;;1.33;;
59054;SDS011;44845;51.444;7.460;2022-07-29T00:14:05;4.50;;;1.00;;
59054;SDS011;44845;51.444;7.460;2022-07-29T00:16:31;8.10;;;1.37;;
59054;SDS011;44845;51.444;7.460;2022-07-29T00:18:56;4.63;;;0.80;;
59054;SDS011;44845;51.444;7.460;2022-07-29T00:21:21;4.75;;;0.98;;
59054;SDS011;44845;51.444;7.460;2022-07-29T00:23:47;6.53;;;1.10;;
59054;SDS011;44845;51.444;7.460;2022-07-29T00:26:12;6.75;;;1.30;;
59054;SDS011;44845;51.444;7.460;2022-07-29T00:28:38;7.03;;;1.25;;
59054;SDS011;44845;51.444;7.460;2022-07-29T00:31:03;4.20;;;1.00;;
59054;SDS011;44845;51.444;7.460;2022-07-29T00:33:29;5.47;;;1.07;;
59054;SDS011;44845;51.444;7.460;2022-07-29T00:35:54;6.00;;;1.08;;
59054;SDS011;44845;51.444;7.460;2022-07-29T00:38:19;7.50;;;1.27;;
59054;SDS011;44845;51.444;7.460;2022-07-29T00:40:45;2.67;;;0.98;;
59054;SDS011;44845;51.444;7.460;2022-07-29T00:43:11;5.15;;;0.98;;
59054;SDS011;44845;51.444;7.460;2022-07-29T00:45:37;3.88;;;0.95;;
59054;SDS011;44845;51.444;7.460;2022-07-29T00:48:02;5.97;;;1.20;;
59054;SDS011;44845;51.444;7.460;2022-07-29T00:50:29;3.83;;;1.10;;
59054;SDS011;44845;51.444;7.460;2022-07-29T00:52:55;2.05;;;1.08;;
59054;SDS011;44845;51.444;7.460;2022-07-29T00:55:20;7.90;;;1.67;;
59054;SDS011;44845;51.444;7.460;2022-07-29T00:57:46;4.00;;;1.00;;
59054;SDS011;44845;51.444;7.460;2022-07-29T01:00:13;6.82;;;1.35;;
59054;SDS011;44845;51.444;7.460;2022-07-29T01:02:39;5.35;;;1.20;;
59054;SDS011;44845;51.444;7.460;2022-07-29T01:05:04;4.43;;;1.20;;
59054;SDS011;44845;51.444;7.460;2022-07-29T01:07:30;6.68;;;1.23;;
59054;SDS011;44845;51.444;7.460;2022-07-29T01:09:56;4.03;;;0.90;;
59054;SDS011;44845;51.444;7.460;2022-07-29T01:12:23;5.05;;;1.10;;
59054;SDS011;44845;51.444;7.460;2022-07-29T01:14:49;4.97;;;1.15;;
59054;SDS011;44845;51.444;7.460;2022-07-29T01:17:19;5.07;;;1.05;;
59054;SDS011;44845;51.444;7.460;2022-07-29T01:27:38;5.93;;;1.35;;
59054;SDS011;44845;51.444;7.460;2022-07-29T01:30:06;4.40;;;1.23;;
59054;SDS011;44845;51.444;7.460;2022-07-29T01:32:33;6.93;;;1.02;;
59054;SDS011;44845;51.444;7.460;2022-07-29T01:37:29;4.95;;;1.20;;
59054;SDS011;44845;51.444;7.460;2022-07-29T01:39:57;4.25;;;0.98;;
59054;SDS011;44845;51.444;7.460;2022-07-29T01:45:00;4.88;;;1.17;;
59054;SDS011;44845;51.444;7.460;2022-07-29T01:47:31;4.68;;;1.15;;
59054;SDS011;44845;51.444;7.460;2022-07-29T01:49:58;3.30;;;0.95;;
59054;SDS011;44845;51.444;7.460;2022-07-29T01:52:31;3.08;;;1.00;;
59054;SDS011;44845;51.444;7.460;2022-07-29T01:54:59;6.38;;;1.27;;
59054;SDS011;44845;51.444;7.460;2022-07-29T01:57:28;4.68;;;1.10;;
59054;SDS011;44845;51.444;7.460;2022-07-29T01:59:54;2.03;;;1.05;;
59054;SDS011;44845;51.444;7.460;2022-07-29T02:02:20;7.78;;;1.48;;
59054;SDS011;44845;51.444;7.460;2022-07-29T02:04:46;2.85;;;1.27;;
59054;SDS011;44845;51.444;7.460;2022-07-29T02:07:13;4.57;;;1.40;;
59054;SDS011;44845;51.444;7.460;2022-07-29T02:09:40;4.93;;;1.20;;
59054;SDS011;44845;51.444;7.460;2022-07-29T02:12:06;3.08;;;1.10;;
59054;SDS011;44845;51.444;7.460;2022-07-29T02:14:37;5.72;;;1.60;;
59054;SDS011;44845;51.444;7.460;2022-07-29T02:17:03;6.45;;;1.52;;
59054;SDS011;44845;51.444;7.460;2022-07-29T02:19:28;4.03;;;1.30;;
59054;SDS011;44845;51.444;7.460;2022-07-29T02:21:54;5.95;;;1.20;;
59054;SDS011;44845;51.444;7.460;2022-07-29T02:24:21;1.85;;;0.80;;
59054;SDS011;44845;51.444;7.460;2022-07-29T02:26:47;2.90;;;0.95;;
59054;SDS011;44845;51.444;7.460;2022-07-29T02:29:14;4.20;;;1.15;;
59054;SDS011;44845;51.444;7.460;2022-07-29T02:31:40;5.93;;;1.33;;
59054;SDS011;44845;51.444;7.460;2022-07-29T02:34:08;2.92;;;1.20;;
59054;SDS011;44845;51.444;7.460;2022-07-29T02:36:34;4.00;;;1.00;;
59054;SDS011;44845;51.444;7.460;2022-07-29T02:39:00;3.25;;;1.15;;
59054;SDS011;44845;51.444;7.460;2022-07-29T02:41:43;4.72;;;0.95;;
59054;SDS011;44845;51.444;7.460;2022-07-29T02:44:10;5.60;;;1.20;;
59054;SDS011;44845;51.444;7.460;2022-07-29T02:46:36;3.40;;;1.05;;
59054;SDS011;44845;51.444;7.460;2022-07-29T02:51:28;3.22;;;1.10;;
59054;SDS011;44845;51.444;7.460;2022-07-29T02:53:57;3.20;;;1.10;;
59054;SDS011;44845;51.444;7.460;2022-07-29T02:56:27;6.13;;;1.20;;
59054;SDS011;44845;51.444;7.460;2022-07-29T02:58:57;8.35;;;1.15;;
59054;SDS011;44845;51.444;7.460;2022-07-29T03:01:24;4.88;;;1.10;;
59054;SDS011;44845;51.444;7.460;2022-07-29T03:03:50;3.90;;;1.00;;
59054;SDS011;44845;51.444;7.460;2022-07-29T03:06:17;4.28;;;1.45;;
59054;SDS011;44845;51.444;7.460;2022-07-29T03:08:43;4.57;;;1.25;;
59054;SDS011;44845;51.444;7.460;2022-07-29T03:11:09;2.63;;;1.25;;
59054;SDS011;44845;51.444;7.460;2022-07-29T03:13:35;6.63;;;1.40;;
59054;SDS011;44845;51.444;7.460;2022-07-29T03:16:01;7.55;;;1.50;;
59054;SDS011;44845;51.444;7.460;2022-07-29T03:18:27;4.03;;;1.23;;
59054;SDS011;44845;51.444;7.460;2022-07-29T03:20:53;5.57;;;1.52;;
59054;SDS011;44845;51.444;7.460;2022-07-29T03:23:19;5.30;;;1.30;;
59054;SDS011;44845;51.444;7.460;2022-07-29T03:25:45;5.43;;;1.20;;
59054;SDS011;44845;51.444;7.460;2022-07-29T03:28:10;4.97;;;1.35;;
59054;SDS011;44845;51.444;7.460;2022-07-29T03:30:35;2.30;;;1.17;;
59054;SDS011;44845;51.444;7.460;2022-07-29T03:33:00;4.70;;;1.17;;
59054;SDS011;44845;51.444;7.460;2022-07-29T03:35:26;5.20;;;1.10;;
59054;SDS011;44845;51.444;7.460;2022-07-29T03:37:51;2.33;;;1.27;;
59054;SDS011;44845;51.444;7.460;2022-07-29T03:40:18;7.43;;;1.10;;
59054;SDS011;44845;51.444;7.460;2022-07-29T03:42:44;6.68;;;1.10;;
59054;SDS011;44845;51.444;7.460;2022-07-29T03:45:12;3.20;;;1.23;;
59054;SDS011;44845;51.444;7.460;2022-07-29T03:47:40;2.80;;;1.15;;
59054;SDS011;44845;51.444;7.460;2022-07-29T03:50:08;10.75;;;1.27;;
59054;SDS011;44845;51.444;7.460;2022-07-29T03:52:36;2.42;;;1.15;;
59054;SDS011;44845;51.444;7.460;2022-07-29T03:55:03;3.20;;;1.20;;
59054;SDS011;44845;51.444;7.460;2022-07-29T03:57:28;5.72;;;1.20;;
59054;SDS011;44845;51.444;7.460;2022-07-29T03:59:55;2.58;;;1.40;;
59054;SDS011;44845;51.444;7.460;2022-07-29T04:02:21;3.20;;;1.50;;
59054;SDS011;44845;51.444;7.460;2022-07-29T04:04:47;4.25;;;1.08;;
59054;SDS011;44845;51.444;7.460;2022-07-29T04:07:13;4.67;;;1.07;;
59054;SDS011;44845;51.444;7.460;2022-07-29T04:09:38;4.93;;;1.45;;
59054;SDS011;44845;51.444;7.460;2022-07-29T04:12:04;3.40;;;1.60;;
59054;SDS011;44845;51.444;7.460;2022-07-29T04:14:29;5.68;;;1.20;;
59054;SDS011;44845;51.444;7.460;2022-07-29T04:16:55;5.57;;;1.38;;
59054;SDS011;44845;51.444;7.460;2022-07-29T04:19:20;4.65;;;1.30;;
59054;SDS011;44845;51.444;7.460;2022-07-29T04:21:45;3.70;;;1.23;;
59054;SDS011;44845;51.444;7.460;2022-07-29T04:24:11;4.10;;;1.60;;
59054;SDS011;44845;51.444;7.460;2022-07-29T04:26:36;2.95;;;1.30;;
59054;SDS011;44845;51.444;7.460;2022-07-29T04:29:02;6.85;;;1.25;;
59054;SDS011;44845;51.444;7.460;2022-07-29T04:31:27;6.30;;;1.33;;
59054;SDS011;44845;51.444;7.460;2022-07-29T04:33:52;6.25;;;1.48;;
59054;SDS011;44845;51.444;7.460;2022-07-29T04:36:17;7.18;;;1.25;;
59054;SDS011;44845;51.444;7.460;2022-07-29T04:38:43;4.53;;;1.40;;
59054;SDS011;44845;51.444;7.460;2022-07-29T04:41:08;5.83;;;1.43;;
59054;SDS011;44845;51.444;7.460;2022-07-29T04:43:34;6.45;;;1.40;;
59054;SDS011;44845;51.444;7.460;2022-07-29T04:45:59;6.78;;;1.52;;
59054;SDS011;44845;51.444;7.460;2022-07-29T04:48:25;5.38;;;1.80;;
59054;SDS011;44845;51.444;7.460;2022-07-29T04:50:50;7.32;;;1.60;;
59054;SDS011;44845;51.444;7.460;2022-07-29T04:53:16;8.05;;;1.40;;
59054;SDS011;44845;51.444;7.460;2022-07-29T04:55:41;6.20;;;1.48;;
59054;SDS011;44845;51.444;7.460;2022-07-29T04:58:06;6.15;;;1.58;;
59054;SDS011;44845;51.444;7.460;2022-07-29T05:00:32;8.27;;;1.48;;
59054;SDS011;44845;51.444;7.460;2022-07-29T05:02:58;6.10;;;1.38;;
59054;SDS011;44845;51.444;7.460;2022-07-29T05:05:23;5.47;;;1.27;;
59054;SDS011;44845;51.444;7.460;2022-07-29T05:07:48;6.40;;;1.60;;
59054;SDS011;44845;51.444;7.460;2022-07-29T05:10:13;8.00;;;1.83;;
59054;SDS011;44845;51.444;7.460;2022-07-29T05:12:38;8.53;;;2.57;;
59054;SDS011;44845;51.444;7.460;2022-07-29T05:15:03;5.27;;;1.03;;
59054;SDS011;44845;51.444;7.460;2022-07-29T05:17:29;8.25;;;1.55;;
59054;SDS011;44845;51.444;7.460;2022-07-29T05:19:54;3.47;;;1.20;;
59054;SDS011;44845;51.444;7.460;2022-07-29T05:22:20;5.95;;;1.20;;
59054;SDS011;44845;51.444;7.460;2022-07-29T05:24:46;3.80;;;1.15;;
59054;SDS011;44845;51.444;7.460;2022-07-29T05:27:11;5.20;;;1.35;;
59054;SDS011;44845;51.444;7.460;2022-07-29T05:29:37;6.80;;;1.25;;
59054;SDS011;44845;51.444;7.460;2022-07-29T05:32:02;3.55;;;0.93;;
59054;SDS011;44845;51.444;7.460;2022-07-29T05:34:28;4.40;;;1.17;;
59054;SDS011;44845;51.444;7.460;2022-07-29T05:36:53;4.33;;;1.40;;
59054;SDS011;44845;51.444;7.460;2022-07-29T05:41:52;6.10;;;1.30;;
59054;SDS011;44845;51.444;7.460;2022-07-29T05:44:17;5.47;;;1.20;;
59054;SDS011;44845;51.444;7.460;2022-07-29T05:46:43;3.97;;;1.17;;
59054;SDS011;44845;51.444;7.460;2022-07-29T05:49:08;7.07;;;1.50;;
59054;SDS011;44845;51.444;7.460;2022-07-29T05:51:34;6.47;;;1.80;;
59054;SDS011;44845;51.444;7.460;2022-07-29T05:53:59;6.43;;;1.65;;
59054;SDS011;44845;51.444;7.460;2022-07-29T05:56:25;5.97;;;1.70;;
59054;SDS011;44845;51.444;7.460;2022-07-29T05:58:51;6.32;;;1.40;;
59054;SDS011;44845;51.444;7.460;2022-07-29T06:01:16;5.68;;;1.52;;
59054;SDS011;44845;51.444;7.460;2022-07-29T06:03:41;6.57;;;1.92;;
59054;SDS011;44845;51.444;7.460;2022-07-29T06:06:07;4.55;;;1.38;;
59054;SDS011;44845;51.444;7.460;2022-07-29T06:08:33;6.97;;;1.42;;
59054;SDS011;44845;51.444;7.460;2022-07-29T06:10:59;4.82;;;1.40;;
59054;SDS011;44845;51.444;7.460;2022-07-29T06:13:24;5.80;;;1.35;;
59054;SDS011;44845;51.444;7.460;2022-07-29T06:15:49;11.10;;;1.60;;
59054;SDS011;44845;51.444;7.460;2022-07-29T06:18:15;4.07;;;1.70;;
59054;SDS011;44845;51.444;7.460;2022-07-29T06:20:40;5.00;;;1.60;;
59054;SDS011;44845;51.444;7.460;2022-07-29T06:23:05;4.53;;;1.40;;
59054;SDS011;44845;51.444;7.460;2022-07-29T06:25:31;4.00;;;1.58;;
59054;SDS011;44845;51.444;7.460;2022-07-29T06:28:02;8.00;;;1.80;;
59054;SDS011;44845;51.444;7.460;2022-07-29T06:30:28;3.67;;;1.67;;
59054;SDS011;44845;51.444;7.460;2022-07-29T06:32:54;3.63;;;1.40;;
59054;SDS011;44845;51.444;7.460;2022-07-29T06:35:20;4.65;;;1.58;;
59054;SDS011;44845;51.444;7.460;2022-07-29T06:37:45;3.92;;;1.50;;
59054;SDS011;44845;51.444;7.460;2022-07-29T06:40:10;6.77;;;1.60;;
59054;SDS011;44845;51.444;7.460;2022-07-29T06:42:54;6.60;;;1.73;;
59054;SDS011;44845;51.444;7.460;2022-07-29T06:45:19;7.93;;;1.70;;
59054;SDS011;44845;51.444;7.460;2022-07-29T06:47:44;3.57;;;1.50;;
59054;SDS011;44845;51.444;7.460;2022-07-29T06:50:10;4.80;;;1.92;;
59054;SDS011;44845;51.444;7.460;2022-07-29T06:52:37;6.00;;;1.70;;
59054;SDS011;44845;51.444;7.460;2022-07-29T06:55:02;8.13;;;1.45;;
59054;SDS011;44845;51.444;7.460;2022-07-29T06:57:28;4.32;;;1.40;;
59054;SDS011;44845;51.444;7.460;2022-07-29T06:59:53;6.63;;;1.83;;
59054;SDS011;44845;51.444;7.460;2022-07-29T07:02:18;4.88;;;1.40;;
59054;SDS011;44845;51.444;7.460;2022-07-29T07:04:43;5.03;;;1.13;;
59054;SDS011;44845;51.444;7.460;2022-07-29T07:07:09;5.88;;;1.20;;
59054;SDS011;44845;51.444;7.460;2022-07-29T07:09:34;6.95;;;1.60;;
59054;SDS011;44845;51.444;7.460;2022-07-29T07:12:00;5.20;;;1.60;;
59054;SDS011;44845;51.444;7.460;2022-07-29T07:14:25;6.03;;;1.67;;
59054;SDS011;44845;51.444;7.460;2022-07-29T07:16:52;4.97;;;1.52;;
59054;SDS011;44845;51.444;7.460;2022-07-29T07:19:17;8.40;;;1.52;;
59054;SDS011;44845;51.444;7.460;2022-07-29T07:21:44;8.45;;;1.67;;
59054;SDS011;44845;51.444;7.460;2022-07-29T07:24:09;6.55;;;1.50;;
59054;SDS011;44845;51.444;7.460;2022-07-29T07:26:35;6.90;;;1.38;;
59054;SDS011;44845;51.444;7.460;2022-07-29T07:29:00;9.40;;;1.70;;
59054;SDS011;44845;51.444;7.460;2022-07-29T07:31:26;5.82;;;1.63;;
59054;SDS011;44845;51.444;7.460;2022-07-29T07:33:51;7.63;;;0.97;;
59054;SDS011;44845;51.444;7.460;2022-07-29T07:36:18;6.03;;;1.63;;
59054;SDS011;44845;51.444;7.460;2022-07-29T07:38:43;5.30;;;1.30;;
59054;SDS011;44845;51.444;7.460;2022-07-29T07:41:08;3.53;;;1.50;;
59054;SDS011;44845;51.444;7.460;2022-07-29T07:43:33;8.03;;;1.67;;
59054;SDS011;44845;51.444;7.460;2022-07-29T07:45:59;4.80;;;1.63;;
59054;SDS011;44845;51.444;7.460;2022-07-29T07:48:24;7.15;;;1.38;;
59054;SDS011;44845;51.444;7.460;2022-07-29T07:50:49;7.30;;;1.20;;
59054;SDS011;44845;51.444;7.460;2022-07-29T07:53:15;8.02;;;1.77;;
59054;SDS011;44845;51.444;7.460;2022-07-29T07:55:41;9.95;;;1.73;;
59054;SDS011;44845;51.444;7.460;2022-07-29T07:58:06;5.03;;;1.20;;
59054;SDS011;44845;51.444;7.460;2022-07-29T08:00:32;7.13;;;1.48;;
59054;SDS011;44845;51.444;7.460;2022-07-29T08:02:57;3.67;;;1.33;;
59054;SDS011;44845;51.444;7.460;2022-07-29T08:05:22;6.25;;;1.40;;
59054;SDS011;44845;51.444;7.460;2022-07-29T08:07:48;6.27;;;1.27;;
59054;SDS011;44845;51.444;7.460;2022-07-29T08:10:14;5.15;;;1.15;;
59054;SDS011;44845;51.444;7.460;2022-07-29T08:12:39;4.75;;;1.45;;
59054;SDS011;44845;51.444;7.460;2022-07-29T08:15:04;8.07;;;1.50;;
59054;SDS011;44845;51.444;7.460;2022-07-29T08:17:32;9.15;;;1.55;;
59054;SDS011;44845;51.444;7.460;2022-07-29T08:19:57;6.93;;;1.63;;
59054;SDS011;44845;51.444;7.460;2022-07-29T08:22:22;5.70;;;1.35;;
59054;SDS011;44845;51.444;7.460;2022-07-29T08:24:48;7.72;;;1.63;;
59054;SDS011;44845;51.444;7.460;2022-07-29T08:27:21;11.95;;;1.67;;
59054;SDS011;44845;51.444;7.460;2022-07-29T08:29:46;10.60;;;1.40;;
59054;SDS011;44845;51.444;7.460;2022-07-29T08:32:12;4.75;;;1.38;;
59054;SDS011;44845;51.444;7.460;2022-07-29T08:34:37;3.05;;;1.08;;
59054;SDS011;44845;51.444;7.460;2022-07-29T08:37:02;6.27;;;1.40;;
59054;SDS011;44845;51.444;7.460;2022-07-29T08:39:27;3.67;;;1.47;;
59054;SDS011;44845;51.444;7.460;2022-07-29T08:41:53;8.90;;;1.73;;
59054;SDS011;44845;51.444;7.460;2022-07-29T08:44:19;5.47;;;1.45;;
59054;SDS011;44845;51.444;7.460;2022-07-29T08:46:46;3.38;;;1.33;;
59054;SDS011;44845;51.444;7.460;2022-07-29T08:49:11;3.65;;;1.70;;
59054;SDS011;44845;51.444;7.460;2022-07-29T08:51:38;6.30;;;1.60;;
59054;SDS011;44845;51.444;7.460;2022-07-29T08:54:04;4.45;;;1.35;;
59054;SDS011;44845;51.444;7.460;2022-07-29T08:56:30;5.00;;;1.30;;
59054;SDS011;44845;51.444;7.460;2022-07-29T08:58:55;5.17;;;1.47;;
59054;SDS011;44845;51.444;7.460;2022-07-29T09:01:23;6.50;;;1.42;;
59054;SDS011;44845;51.444;7.460;2022-07-29T09:03:48;8.48;;;1.90;;
59054;SDS011;44845;51.444;7.460;2022-07-29T09:06:14;4.68;;;1.50;;
59054;SDS011;44845;51.444;7.460;2022-07-29T09:08:39;6.68;;;1.60;;
59054;SDS011;44845;51.444;7.460;2022-07-29T09:11:05;4.53;;;1.40;;
59054;SDS011;44845;51.444;7.460;2022-07-29T09:13:32;7.63;;;1.75;;
59054;SDS011;44845;51.444;7.460;2022-07-29T09:15:57;7.20;;;1.83;;
59054;SDS011;44845;51.444;7.460;2022-07-29T09:18:39;7.43;;;2.08;;
59054;SDS011;44845;51.444;7.460;2022-07-29T09:21:08;6.88;;;1.85;;
59054;SDS011;44845;51.444;7.460;2022-07-29T09:24:13;10.20;;;1.70;;
59054;SDS011;44845;51.444;7.460;2022-07-29T09:26:40;7.22;;;2.00;;
59054;SDS011;44845;51.444;7.460;2022-07-29T09:29:15;5.47;;;2.00;;
59054;SDS011;44845;51.444;7.460;2022-07-29T09:31:41;4.88;;;2.00;;
59054;SDS011;44845;51.444;7.460;2022-07-29T09:34:07;5.72;;;1.70;;
59054;SDS011;44845;51.444;7.460;2022-07-29T09:36:46;7.38;;;2.25;;
59054;SDS011;44845;51.444;7.460;2022-07-29T09:39:12;5.00;;;1.67;;
59054;SDS011;44845;51.444;7.460;2022-07-29T09:41:51;7.63;;;1.90;;
59054;SDS011;44845;51.444;7.460;2022-07-29T09:44:19;8.38;;;2.13;;
59054;SDS011;44845;51.444;7.460;2022-07-29T09:49:19;9.45;;;2.45;;
59054;SDS011;44845;51.444;7.460;2022-07-29T09:51:45;4.78;;;2.25;;
59054;SDS011;44845;51.444;7.460;2022-07-29T09:54:23;5.93;;;2.00;;
59054;SDS011;44845;51.444;7.460;2022-07-29T09:56:48;9.23;;;2.72;;
59054;SDS011;44845;51.444;7.460;2022-07-29T09:59:13;7.35;;;2.72;;
59054;SDS011;44845;51.444;7.460;2022-07-29T10:01:39;5.80;;;2.20;;
59054;SDS011;44845;51.444;7.460;2022-07-29T10:04:05;9.63;;;2.50;;
59054;SDS011;44845;51.444;7.460;2022-07-29T10:06:30;4.22;;;2.38;;
59054;SDS011;44845;51.444;7.460;2022-07-29T10:09:06;6.90;;;2.08;;
59054;SDS011;44845;51.444;7.460;2022-07-29T10:11:32;6.38;;;2.90;;
59054;SDS011;44845;51.444;7.460;2022-07-29T10:13:57;10.20;;;3.25;;
59054;SDS011;44845;51.444;7.460;2022-07-29T10:16:22;9.18;;;2.40;;
59054;SDS011;44845;51.444;7.460;2022-07-29T10:18:48;5.03;;;2.60;;
59054;SDS011;44845;51.444;7.460;2022-07-29T10:21:13;12.50;;;2.88;;
59054;SDS011;44845;51.444;7.460;2022-07-29T10:23:39;5.97;;;2.87;;
59054;SDS011;44845;51.444;7.460;2022-07-29T10:26:04;5.00;;;2.53;;
59054;SDS011;44845;51.444;7.460;2022-07-29T10:28:30;7.47;;;2.70;;
59054;SDS011;44845;51.444;7.460;2022-07-29T10:30:58;8.32;;;2.92;;
59054;SDS011;44845;51.444;7.460;2022-07-29T10:38:44;9.27;;;3.08;;
59054;SDS011;44845;51.444;7.460;2022-07-29T10:46:22;8.73;;;2.80;;
59054;SDS011;44845;51.444;7.460;2022-07-29T10:54:41;9.38;;;3.10;;
59054;SDS011;44845;51.444;7.460;2022-07-29T10:59:42;9.68;;;3.30;;
59054;SDS011;44845;51.444;7.460;2022-07-29T11:07:17;9.18;;;3.40;;
59054;SDS011;44845;51.444;7.460;2022-07-29T11:09:42;9.03;;;3.50;;
59054;SDS011;44845;51.444;7.460;2022-07-29T11:14:59;11.20;;;4.10;;
59054;SDS011;44845;51.444;7.460;2022-07-29T11:17:27;5.87;;;3.80;;
59054;SDS011;44845;51.444;7.460;2022-07-29T11:20:30;8.82;;;3.83;;
59054;SDS011;44845;51.444;7.460;2022-07-29T11:22:37;6.60;;;3.55;;
59054;SDS011;44845;51.444;7.460;2022-07-29T11:25:12;11.87;;;3.87;;
59054;SDS011;44845;51.444;7.460;2022-07-29T11:27:37;6.75;;;3.58;;
59054;SDS011;44845;51.444;7.460;2022-07-29T11:30:04;8.93;;;3.50;;
59054;SDS011;44845;51.444;7.460;2022-07-29T11:32:37;9.65;;;3.72;;
59054;SDS011;44845;51.444;7.460;2022-07-29T11:35:13;5.45;;;3.35;;
59054;SDS011;44845;51.444;7.460;2022-07-29T11:37:38;4.53;;;3.45;;
59054;SDS011;44845;51.444;7.460;2022-07-29T11:45:03;6.82;;;3.22;;
59054;SDS011;44845;51.444;7.460;2022-07-29T11:47:36;14.65;;;3.88;;
59054;SDS011;44845;51.444;7.460;2022-07-29T11:50:02;8.98;;;3.30;;
59054;SDS011;44845;51.444;7.460;2022-07-29T11:52:33;8.52;;;3.53;;
59054;SDS011;44845;51.444;7.460;2022-07-29T11:55:02;7.97;;;3.65;;
59054;SDS011;44845;51.444;7.460;2022-07-29T11:57:28;6.75;;;3.30;;
59054;SDS011;44845;51.444;7.460;2022-07-29T11:59:54;8.00;;;3.40;;
59054;SDS011;44845;51.444;7.460;2022-07-29T12:02:20;9.32;;;3.30;;
59054;SDS011;44845;51.444;7.460;2022-07-29T12:04:55;7.85;;;2.80;;
59054;SDS011;44845;51.444;7.460;2022-07-29T12:07:30;12.57;;;3.00;;
59054;SDS011;44845;51.444;7.460;2022-07-29T12:09:56;8.10;;;2.75;;
59054;SDS011;44845;51.444;7.460;2022-07-29T12:12:22;13.23;;;3.42;;
59054;SDS011;44845;51.444;7.460;2022-07-29T12:14:47;6.50;;;2.60;;
59054;SDS011;44845;51.444;7.460;2022-07-29T12:19:51;5.65;;;2.55;;
59054;SDS011;44845;51.444;7.460;2022-07-29T12:22:24;10.48;;;2.90;;
59054;SDS011;44845;51.444;7.460;2022-07-29T12:24:49;7.80;;;2.70;;
59054;SDS011;44845;51.444;7.460;2022-07-29T12:27:16;5.07;;;2.23;;
59054;SDS011;44845;51.444;7.460;2022-07-29T12:29:41;9.43;;;3.03;;
59054;SDS011;44845;51.444;7.460;2022-07-29T12:32:07;5.25;;;2.80;;
59054;SDS011;44845;51.444;7.460;2022-07-29T12:34:32;9.47;;;2.63;;
59054;SDS011;44845;51.444;7.460;2022-07-29T12:36:58;6.82;;;2.95;;
59054;SDS011;44845;51.444;7.460;2022-07-29T12:39:23;6.93;;;2.30;;
59054;SDS011;44845;51.444;7.460;2022-07-29T12:41:51;7.40;;;2.50;;
59054;SDS011;44845;51.444;7.460;2022-07-29T12:44:16;8.25;;;2.20;;
59054;SDS011;44845;51.444;7.460;2022-07-29T12:46:42;9.20;;;2.50;;
59054;SDS011;44845;51.444;7.460;2022-07-29T12:49:07;6.72;;;2.20;;
59054;SDS011;44845;51.444;7.460;2022-07-29T12:51:36;8.82;;;2.38;;
59054;SDS011;44845;51.444;7.460;2022-07-29T12:56:27;8.33;;;2.60;;
59054;SDS011;44845;51.444;7.460;2022-07-29T12:58:53;7.57;;;2.73;;
59054;SDS011;44845;51.444;7.460;2022-07-29T13:01:18;4.60;;;2.30;;
59054;SDS011;44845;51.444;7.460;2022-07-29T13:03:45;9.00;;;2.78;;
59054;SDS011;44845;51.444;7.460;2022-07-29T13:11:29;13.57;;;2.92;;
59054;SDS011;44845;51.444;7.460;2022-07-29T13:13:54;7.32;;;2.80;;
59054;SDS011;44845;51.444;7.460;2022-07-29T13:16:19;7.17;;;2.50;;
59054;SDS011;44845;51.444;7.460;2022-07-29T13:18:44;10.60;;;3.00;;
59054;SDS011;44845;51.444;7.460;2022-07-29T13:21:13;5.23;;;2.50;;
59054;SDS011;44845;51.444;7.460;2022-07-29T13:23:39;5.10;;;2.78;;
59054;SDS011;44845;51.444;7.460;2022-07-29T13:26:05;5.82;;;2.47;;
59054;SDS011;44845;51.444;7.460;2022-07-29T13:28:31;7.95;;;3.28;;
59054;SDS011;44845;51.444;7.460;2022-07-29T13:30:57;7.93;;;2.60;;
59054;SDS011;44845;51.444;7.460;2022-07-29T13:33:22;7.05;;;2.60;;
59054;SDS011;44845;51.444;7.460;2022-07-29T13:35:48;6.40;;;3.00;;
59054;SDS011;44845;51.444;7.460;2022-07-29T13:38:14;7.60;;;2.60;;
59054;SDS011;44845;51.444;7.460;2022-07-29T13:40:40;7.10;;;3.00;;
59054;SDS011;44845;51.444;7.460;2022-07-29T13:43:05;8.40;;;2.92;;
59054;SDS011;44845;51.444;7.460;2022-07-29T13:45:33;8.52;;;2.75;;
59054;SDS011;44845;51.444;7.460;2022-07-29T13:47:58;8.47;;;3.20;;
59054;SDS011;44845;51.444;7.460;2022-07-29T13:50:23;9.23;;;3.63;;
59054;SDS011;44845;51.444;7.460;2022-07-29T13:52:49;15.00;;;2.90;;
59054;SDS011;44845;51.444;7.460;2022-07-29T13:55:15;7.85;;;2.80;;
59054;SDS011;44845;51.444;7.460;2022-07-29T13:57:40;5.43;;;2.67;;
59054;SDS011;44845;51.444;7.460;2022-07-29T14:00:06;7.10;;;3.28;;
59054;SDS011;44845;51.444;7.460;2022-07-29T14:02:32;8.13;;;3.30;;
59054;SDS011;44845;51.444;7.460;2022-07-29T14:04:58;5.35;;;2.78;;
59054;SDS011;44845;51.444;7.460;2022-07-29T14:07:24;6.13;;;2.60;;
59054;SDS011;44845;51.444;7.460;2022-07-29T14:09:49;6.05;;;2.55;;
59054;SDS011;44845;51.444;7.460;2022-07-29T14:12:15;8.35;;;2.22;;
59054;SDS011;44845;51.444;7.460;2022-07-29T14:14:40;7.10;;;2.85;;
59054;SDS011;44845;51.444;7.460;2022-07-29T14:17:06;5.78;;;2.90;;
59054;SDS011;44845;51.444;7.460;2022-07-29T14:19:31;8.30;;;2.92;;
59054;SDS011;44845;51.444;7.460;2022-07-29T14:22:00;8.68;;;2.97;;
59054;SDS011;44845;51.444;7.460;2022-07-29T14:24:25;9.07;;;2.90;;
59054;SDS011;44845;51.444;7.460;2022-07-29T14:26:50;9.10;;;2.83;;
59054;SDS011;44845;51.444;7.460;2022-07-29T14:29:16;7.25;;;1.95;;
59054;SDS011;44845;51.444;7.460;2022-07-29T14:31:41;8.10;;;2.22;;
59054;SDS011;44845;51.444;7.460;2022-07-29T14:34:08;5.15;;;2.50;;
59054;SDS011;44845;51.444;7.460;2022-07-29T14:36:34;5.65;;;2.55;;
59054;SDS011;44845;51.444;7.460;2022-07-29T14:38:59;5.03;;;2.10;;
59054;SDS011;44845;51.444;7.460;2022-07-29T14:41:24;7.20;;;2.27;;
59054;SDS011;44845;51.444;7.460;2022-07-29T14:43:52;7.20;;;1.85;;
59054;SDS011;44845;51.444;7.460;2022-07-29T14:46:18;7.28;;;2.30;;
59054;SDS011;44845;51.444;7.460;2022-07-29T14:48:43;5.83;;;2.10;;
59054;SDS011;44845;51.444;7.460;2022-07-29T14:51:09;6.93;;;2.80;;
59054;SDS011;44845;51.444;7.460;2022-07-29T14:53:35;5.68;;;2.15;;
59054;SDS011;44845;51.444;7.460;2022-07-29T14:56:01;4.28;;;2.03;;
59054;SDS011;44845;51.444;7.460;2022-07-29T14:58:26;4.47;;;2.15;;
59054;SDS011;44845;51.444;7.460;2022-07-29T15:00:51;4.47;;;1.92;;
59054;SDS011;44845;51.444;7.460;2022-07-29T15:03:17;3.05;;;1.90;;
59054;SDS011;44845;51.444;7.460;2022-07-29T15:05:42;9.05;;;2.30;;
59054;SDS011;44845;51.444;7.460;2022-07-29T15:08:08;4.95;;;2.35;;
59054;SDS011;44845;51.444;7.460;2022-07-29T15:10:33;10.50;;;2.73;;
59054;SDS011;44845;51.444;7.460;2022-07-29T15:12:58;8.23;;;2.95;;
59054;SDS011;44845;51.444;7.460;2022-07-29T15:15:23;11.27;;;2.90;;
59054;SDS011;44845;51.444;7.460;2022-07-29T15:17:49;4.87;;;2.60;;
59054;SDS011;44845;51.444;7.460;2022-07-29T15:20:14;5.18;;;2.38;;
59054;SDS011;44845;51.444;7.460;2022-07-29T15:22:40;8.98;;;2.78;;
59054;SDS011;44845;51.444;7.460;2022-07-29T15:25:07;4.75;;;2.85;;
59054;SDS011;44845;51.444;7.460;2022-07-29T15:27:32;7.32;;;2.70;;
59054;SDS011;44845;51.444;7.460;2022-07-29T15:29:58;5.85;;;2.60;;
59054;SDS011;44845;51.444;7.460;2022-07-29T15:32:23;11.95;;;2.60;;
59054;SDS011;44845;51.444;7.460;2022-07-29T15:34:48;5.53;;;2.50;;
59054;SDS011;44845;51.444;7.460;2022-07-29T15:37:13;6.47;;;2.53;;
59054;SDS011;44845;51.444;7.460;2022-07-29T15:39:39;3.97;;;2.20;;
59054;SDS011;44845;51.444;7.460;2022-07-29T15:42:04;5.63;;;2.23;;
59054;SDS011;44845;51.444;7.460;2022-07-29T15:44:29;6.40;;;2.53;;
59054;SDS011;44845;51.444;7.460;2022-07-29T15:46:54;8.10;;;2.30;;